createdAt,value
2023-02-23T00:16:43.283Z,1070.00
2023-02-23T00:17:43.101Z,1070.00
2023-02-23T00:18:43.196Z,1069.00
2023-02-23T00:19:43.343Z,1070.00
2023-02-23T00:20:43.359Z,1070.00
2023-02-23T00:21:43.456Z,1068.00
2023-02-23T00:22:43.531Z,1065.00
2023-02-23T00:23:43.632Z,1066.00
2023-02-23T00:24:43.781Z,1068.00
2023-02-23T00:25:43.793Z,1068.00
2023-02-23T00:26:43.875Z,1067.00
2023-02-23T00:27:43.958Z,1065.00
2023-02-23T00:28:44.074Z,1066.00
2023-02-23T00:29:44.139Z,1065.00
2023-02-23T00:30:44.222Z,1061.00
2023-02-23T00:31:44.466Z,1063.00
2023-02-23T00:32:44.450Z,1062.00
2023-02-23T00:33:44.467Z,1060.00
2023-02-23T00:34:44.555Z,1061.00
2023-02-23T00:35:44.704Z,1060.00
2023-02-23T00:36:44.744Z,1058.00
2023-02-23T00:37:44.828Z,1052.00
2023-02-23T00:38:44.907Z,1047.00
2023-02-23T00:39:44.997Z,1052.00
2023-02-23T00:40:45.083Z,1056.00
2023-02-23T00:41:45.161Z,1057.00
2023-02-23T00:42:45.261Z,1058.00
2023-02-23T00:43:45.335Z,1057.00
2023-02-23T00:44:45.413Z,1054.00
2023-02-23T00:45:45.496Z,1057.00
2023-02-23T00:46:45.573Z,1055.00
2023-02-23T00:47:45.667Z,1053.00
2023-02-23T00:48:45.795Z,1055.00
2023-02-23T00:49:45.827Z,1055.00
2023-02-23T00:50:45.913Z,1053.00
2023-02-23T00:51:45.999Z,1052.00
2023-02-23T00:52:46.077Z,1052.00
2023-02-23T00:53:46.164Z,1049.00
2023-02-23T00:54:46.242Z,1047.00
2023-02-23T00:55:46.334Z,1047.00
2023-02-23T00:56:46.430Z,1045.00
2023-02-23T00:57:46.503Z,1044.00
2023-02-23T00:58:46.585Z,1045.00
2023-02-23T02:12:53.138Z,995.00
2023-02-23T02:13:53.217Z,991.00
2023-02-23T02:14:53.298Z,992.00
2023-02-23T02:15:53.406Z,994.00
2023-02-23T02:18:53.629Z,993.00
2023-02-23T02:19:53.720Z,992.00
2023-02-23T02:20:53.807Z,996.00
2023-02-23T02:21:53.898Z,997.00
2023-02-23T02:22:53.976Z,1000.00
2023-02-23T02:23:54.061Z,997.00
2023-02-23T02:24:54.259Z,994.00
2023-02-23T02:25:54.229Z,993.00
2023-02-23T02:26:54.325Z,991.00
2023-02-23T02:27:54.426Z,990.00
2023-02-23T02:28:54.492Z,987.00
2023-02-23T02:29:54.579Z,988.00
2023-02-23T02:30:54.717Z,989.00
2023-02-23T02:31:54.859Z,990.00
2023-02-23T02:32:54.832Z,993.00
2023-02-23T02:33:54.922Z,993.00
2023-02-23T02:34:55.011Z,991.00
2023-02-23T02:35:55.114Z,988.00
2023-02-23T02:36:55.202Z,987.00
2023-02-23T02:37:55.276Z,987.00
2023-02-23T02:38:55.359Z,986.00
2023-02-23T02:39:55.441Z,985.00
2023-02-23T02:40:55.524Z,986.00
2023-02-23T02:41:55.632Z,986.00
2023-02-23T02:42:55.709Z,985.00
2023-02-23T02:43:55.788Z,981.00
2023-02-23T02:44:55.878Z,983.00
2023-02-23T03:06:57.794Z,967.00
2023-02-23T03:07:57.888Z,970.00
2023-02-23T03:08:57.974Z,968.00
2023-02-23T03:09:58.057Z,969.00
2023-02-23T03:10:58.836Z,965.00
2023-02-23T03:11:58.238Z,962.00
2023-02-23T03:12:58.323Z,962.00
2023-02-23T03:13:58.431Z,965.00
2023-02-23T03:14:58.567Z,961.00
2023-02-23T03:15:58.608Z,961.00
2023-02-23T03:16:58.656Z,958.00
2023-02-23T03:17:58.748Z,960.00
2023-02-23T03:18:58.881Z,960.00
2023-02-23T03:19:58.939Z,958.00
2023-02-23T03:20:59.001Z,956.00
2023-02-23T03:21:59.088Z,957.00
2023-02-23T03:22:59.172Z,956.00
2023-02-23T03:23:59.273Z,955.00
2023-02-23T03:24:59.373Z,956.00
2023-02-23T03:25:59.442Z,958.00
2023-02-23T03:26:59.540Z,962.00
2023-02-23T03:27:59.609Z,960.00
2023-02-23T03:28:59.697Z,958.00
2023-02-23T03:29:59.785Z,953.00
2023-02-23T03:30:59.942Z,951.00
2023-02-23T03:32:00.044Z,952.00
2023-02-23T03:33:00.050Z,955.00
2023-02-23T03:34:00.128Z,954.00
2023-02-23T03:35:00.238Z,955.00
2023-02-23T03:36:00.315Z,960.00
2023-02-23T03:37:00.393Z,959.00
2023-02-23T03:38:00.477Z,959.00
2023-02-23T03:39:00.556Z,959.00
2023-02-23T03:40:00.713Z,957.00
2023-02-23T03:41:00.753Z,958.00
2023-02-23T03:42:00.929Z,956.00
2023-02-23T03:43:00.939Z,954.00
2023-02-23T03:44:00.978Z,954.00
2023-02-23T03:45:01.178Z,955.00
2023-02-23T03:46:01.195Z,953.00
2023-02-23T03:47:01.236Z,953.00
2023-02-23T03:48:01.316Z,951.00
2023-02-23T03:49:01.397Z,952.00
2023-02-23T03:50:01.491Z,955.00
2023-02-23T04:12:03.102Z,945.00
2023-02-23T04:13:03.167Z,944.00
2023-02-23T04:14:03.217Z,946.00
2023-02-23T04:15:03.297Z,946.00
2023-02-23T04:16:03.339Z,946.00
2023-02-23T04:17:03.408Z,943.00
2023-02-23T04:18:03.470Z,942.00
2023-02-23T04:19:03.609Z,941.00
2023-02-23T04:20:03.581Z,941.00
2023-02-23T04:21:03.694Z,943.00
2023-02-23T04:22:03.694Z,940.00
2023-02-23T04:23:03.752Z,938.00
2023-02-23T04:24:03.806Z,938.00
2023-02-23T04:25:03.865Z,940.00
2023-02-23T04:26:03.920Z,937.00
2023-02-23T04:27:03.961Z,940.00
2023-02-23T04:28:04.011Z,940.00
2023-02-23T04:29:04.081Z,936.00
2023-02-23T04:30:04.147Z,934.00
2023-02-23T04:31:04.410Z,932.00
2023-02-23T04:32:04.342Z,931.00
2023-02-23T04:34:04.366Z,930.00
2023-02-23T04:35:04.417Z,928.00
2023-02-23T04:36:04.466Z,928.00
2023-02-23T04:37:04.508Z,928.00
2023-02-23T04:38:04.556Z,927.00
2023-02-23T04:39:04.607Z,922.00
2023-02-23T04:41:04.713Z,921.00
2023-02-23T04:42:04.775Z,921.00
2023-02-23T04:43:04.811Z,920.00
2023-02-23T04:44:04.854Z,920.00
2023-02-23T04:45:04.916Z,922.00
2023-02-23T04:46:04.976Z,923.00
2023-02-23T04:48:05.038Z,922.00
2023-02-23T04:49:05.096Z,918.00
2023-02-23T04:50:05.144Z,916.00
2023-02-23T04:51:05.197Z,917.00
2023-02-23T04:52:05.246Z,916.00
2023-02-23T04:53:05.302Z,915.00
2023-02-23T04:54:05.344Z,912.00
2023-02-23T04:55:05.394Z,912.00
2023-02-23T04:56:05.449Z,909.00
2023-02-23T04:57:05.483Z,907.00
2023-02-23T04:58:05.586Z,909.00
2023-02-23T04:59:05.576Z,908.00
2023-02-23T05:00:05.614Z,908.00
2023-02-23T05:01:05.703Z,907.00
2023-02-23T05:02:05.728Z,911.00
2023-02-23T05:03:05.800Z,910.00
2023-02-23T05:04:05.816Z,908.00
2023-02-23T05:05:06.000Z,906.00
2023-02-23T05:06:05.918Z,904.00
2023-02-23T05:07:05.959Z,902.00
2023-02-23T05:08:06.007Z,905.00
2023-02-23T05:09:06.046Z,904.00
2023-02-23T05:10:06.087Z,901.00
2023-02-23T05:11:06.129Z,900.00
2023-02-23T05:12:06.165Z,901.00
2023-02-23T05:13:06.198Z,904.00
2023-02-23T05:14:06.257Z,905.00
2023-02-23T05:15:06.290Z,904.00
2023-02-23T05:16:06.402Z,899.00
2023-02-23T05:17:08.332Z,899.00
2023-02-23T05:19:06.452Z,896.00
2023-02-23T05:20:06.491Z,895.00
2023-02-23T05:21:06.537Z,895.00
2023-02-23T05:22:06.604Z,895.00
2023-02-23T05:27:06.809Z,888.00
2023-02-23T05:36:07.203Z,894.00
2023-02-23T07:24:13.438Z,1984.00
2023-02-23T07:36:13.102Z,1261.00
2023-02-23T07:37:13.220Z,1236.00
2023-02-23T07:38:13.322Z,1182.00
2023-02-23T07:39:13.421Z,1162.00
2023-02-23T07:40:13.523Z,1159.00
2023-02-23T07:41:13.592Z,1131.00
2023-02-23T07:42:13.643Z,1074.00
2023-02-23T07:43:13.708Z,1045.00
2023-02-23T07:44:13.770Z,1037.00
2023-02-23T07:45:13.843Z,1028.00
2023-02-23T07:46:13.922Z,1019.00
2023-02-23T07:47:13.932Z,1022.00
2023-02-23T07:48:13.963Z,982.00
2023-02-23T07:49:14.008Z,969.00
2023-02-23T07:50:14.053Z,965.00
2023-02-23T07:51:14.089Z,975.00
2023-02-23T07:52:14.124Z,970.00
2023-02-23T07:53:14.942Z,960.00
2023-02-23T07:54:14.211Z,958.00
2023-02-23T07:55:14.312Z,955.00
2023-02-23T07:56:14.298Z,947.00
2023-02-23T07:57:14.339Z,952.00
2023-02-23T07:58:14.397Z,1000.00
2023-02-23T07:59:14.452Z,1002.00
2023-02-23T08:00:14.531Z,1006.00
2023-02-23T08:01:14.636Z,997.00
2023-02-23T08:02:14.722Z,998.00
2023-02-23T08:03:14.806Z,1012.00
2023-02-23T08:04:14.947Z,1052.00
2023-02-23T08:05:14.971Z,1105.00
2023-02-23T08:06:15.070Z,1121.00
2023-02-23T08:07:15.145Z,1118.00
2023-02-23T08:08:15.220Z,1196.00
2023-02-23T08:09:15.463Z,1183.00
2023-02-23T08:10:15.358Z,1194.00
2023-02-23T08:11:15.413Z,1215.00
2023-02-23T08:12:15.473Z,1256.00
2023-02-23T08:13:15.548Z,1269.00
2023-02-23T08:14:15.576Z,1326.00
2023-02-23T08:15:15.971Z,1473.00
2023-02-23T08:16:15.723Z,1444.00
2023-02-23T08:17:15.691Z,1438.00
2023-02-23T08:18:15.782Z,1428.00
2023-02-23T08:19:15.770Z,1327.00
2023-02-23T08:20:15.817Z,1337.00
2023-02-23T08:21:15.865Z,1215.00
2023-02-23T08:22:15.910Z,1265.00
2023-02-23T08:23:15.978Z,1229.00
2023-02-23T08:24:16.878Z,1226.00
2023-02-23T08:25:16.088Z,1245.00
2023-02-23T08:26:16.148Z,1251.00
2023-02-23T08:27:16.210Z,1244.00
2023-02-23T08:28:16.887Z,1242.00
2023-02-23T08:29:16.331Z,1230.00
2023-02-23T08:30:16.395Z,1166.00
2023-02-23T08:31:16.571Z,1168.00
2023-02-23T08:32:16.649Z,1145.00
2023-02-23T08:33:16.589Z,1165.00
2023-02-23T08:34:16.985Z,1184.00
2023-02-23T08:35:16.711Z,1181.00
2023-02-23T08:36:16.765Z,1192.00
2023-02-23T08:37:16.864Z,1203.00
2023-02-23T08:40:16.993Z,1118.00
2023-02-23T08:41:18.401Z,1128.00
2023-02-23T08:43:17.155Z,1121.00
2023-02-23T08:44:17.199Z,1114.00
2023-02-23T08:45:17.247Z,1110.00
2023-02-23T08:46:17.339Z,1113.00
2023-02-23T08:47:17.360Z,1095.00
2023-02-23T08:49:17.480Z,1094.00
2023-02-23T08:50:17.598Z,1093.00
2023-02-23T08:51:17.904Z,1091.00
2023-02-23T08:52:17.635Z,1085.00
2023-02-23T08:53:17.690Z,1107.00
2023-02-23T08:54:17.765Z,1081.00
2023-02-23T08:55:17.827Z,1067.00
2023-02-23T08:56:17.854Z,1073.00
2023-02-23T08:57:17.916Z,1073.00
2023-02-23T08:58:17.976Z,1103.00
2023-02-23T08:59:18.018Z,1091.00
2023-02-23T09:00:18.074Z,1069.00
2023-02-23T09:01:18.539Z,1061.00
2023-02-23T09:02:18.188Z,1056.00
2023-02-23T09:04:18.341Z,1037.00
2023-02-23T09:06:18.451Z,1034.00
2023-02-23T09:07:18.486Z,1091.00
2023-02-23T09:08:18.550Z,1028.00
2023-02-23T09:09:18.613Z,1037.00
2023-02-23T09:10:18.666Z,1100.00
2023-02-23T10:43:23.516Z,2064.00
2023-02-23T11:23:23.196Z,1829.00
2023-02-23T11:24:23.208Z,1824.00
2023-02-23T11:25:23.152Z,1829.00
2023-02-23T11:26:23.304Z,1831.00
2023-02-23T11:27:23.193Z,1828.00
2023-02-23T11:28:23.217Z,1834.00
2023-02-23T11:29:24.030Z,1834.00
2023-02-23T11:30:23.265Z,1834.00
2023-02-23T11:31:23.639Z,1832.00
2023-02-23T11:32:23.627Z,1829.00
2023-02-23T11:33:23.346Z,1832.00
2023-02-23T11:34:23.368Z,1826.00
2023-02-23T11:35:23.409Z,1827.00
2023-02-23T11:36:23.491Z,1821.00
2023-02-23T11:37:23.468Z,1817.00
2023-02-23T11:38:23.506Z,1815.00
2023-02-23T11:39:23.611Z,1813.00
2023-02-23T11:40:23.573Z,1811.00
2023-02-23T11:41:23.627Z,1808.00
2023-02-23T11:42:23.654Z,1808.00
2023-02-23T11:43:23.704Z,1802.00
2023-02-23T11:44:23.747Z,1802.00
2023-02-23T11:45:23.775Z,1797.00
2023-02-23T11:46:24.127Z,1796.00
2023-02-23T11:47:23.880Z,1795.00
2023-02-23T11:48:23.919Z,1790.00
2023-02-23T11:49:23.939Z,1789.00
2023-02-23T11:50:23.989Z,1784.00
2023-02-23T11:51:24.043Z,1782.00
2023-02-23T11:52:24.077Z,1781.00
2023-02-23T11:53:24.127Z,1781.00
2023-02-23T11:54:24.193Z,1779.00
2023-02-23T11:55:24.204Z,1780.00
2023-02-23T11:56:24.252Z,1779.00
2023-02-23T11:57:24.352Z,1774.00
2023-02-23T11:58:24.357Z,1767.00
2023-02-23T11:59:24.402Z,1766.00
2023-02-23T12:00:24.436Z,1765.00
2023-02-23T12:01:24.542Z,1763.00
2023-02-23T12:02:24.541Z,1769.00
2023-02-23T12:03:24.654Z,1770.00
2023-02-23T12:04:24.633Z,1765.00
2023-02-23T12:05:24.680Z,1766.00
2023-02-23T12:06:24.769Z,1768.00
2023-02-23T12:07:24.805Z,1767.00
2023-02-23T12:08:24.935Z,1768.00
2023-02-23T12:09:24.898Z,1758.00
2023-02-23T12:10:25.011Z,1756.00
2023-02-23T12:11:25.561Z,1751.00
2023-02-23T12:12:25.068Z,1749.00
2023-02-23T12:13:25.134Z,1747.00
2023-02-23T12:14:25.182Z,1744.00
2023-02-23T12:33:26.329Z,1709.00
2023-02-23T12:34:26.404Z,1707.00
2023-02-23T12:35:26.465Z,1707.00
2023-02-23T13:56:32.504Z,1569.00
2023-02-23T13:57:32.592Z,1568.00
2023-02-23T13:58:32.737Z,1565.00
2023-02-23T13:59:32.786Z,1561.00
2023-02-23T14:00:32.834Z,1558.00
2023-02-23T14:01:33.060Z,1558.00
2023-02-23T14:02:33.085Z,1557.00
2023-02-23T14:03:33.094Z,1558.00
2023-02-23T14:04:33.161Z,1554.00
2023-02-23T14:05:33.302Z,1553.00
2023-02-23T14:06:33.345Z,1550.00
2023-02-23T14:07:33.422Z,1551.00
2023-02-23T14:08:33.491Z,1549.00
2023-02-23T14:09:33.558Z,1550.00
2023-02-23T14:10:33.628Z,1549.00
2023-02-23T14:11:33.701Z,1550.00
2023-02-23T14:12:33.765Z,1549.00
2023-02-23T14:13:33.955Z,1545.00
2023-02-23T14:14:33.894Z,1543.00
2023-02-23T14:15:33.988Z,1539.00
2023-02-23T14:16:34.124Z,1538.00
2023-02-23T14:17:34.142Z,1540.00
2023-02-23T14:18:34.248Z,1542.00
2023-02-23T14:19:35.097Z,1538.00
2023-02-23T14:20:34.390Z,1533.00
2023-02-23T14:21:34.460Z,1533.00
2023-02-23T14:22:34.536Z,1530.00
2023-02-23T14:23:34.625Z,1531.00
2023-02-23T14:24:34.700Z,1530.00
2023-02-23T14:25:34.769Z,1527.00
2023-02-23T14:26:34.828Z,1527.00
2023-02-23T14:27:41.476Z,1525.00
2023-02-23T14:28:35.936Z,1523.00
2023-02-23T14:29:34.930Z,1522.00
2023-02-23T14:30:34.952Z,1523.00
2023-02-23T14:31:35.073Z,1523.00
2023-02-23T14:32:35.175Z,1523.00
2023-02-23T14:33:34.964Z,1521.00
2023-02-23T14:34:34.963Z,1513.00
2023-02-23T14:35:34.978Z,1510.00
2023-02-23T14:36:34.973Z,1509.00
2023-02-23T14:37:35.038Z,1506.00
2023-02-23T14:38:47.608Z,1510.00
2023-02-23T14:39:36.120Z,1506.00
2023-02-23T14:40:35.139Z,1504.00
2023-02-23T14:41:35.128Z,1504.00
2023-02-23T14:42:35.136Z,1505.00
2023-02-23T14:43:35.148Z,1503.00
2023-02-23T14:44:35.162Z,1500.00
2023-02-23T14:45:35.163Z,1496.00
2023-02-23T14:46:35.267Z,1494.00
2023-02-23T14:47:35.176Z,1495.00
2023-02-23T14:48:35.191Z,1495.00
2023-02-23T14:49:35.181Z,1494.00
2023-02-23T14:50:35.199Z,1491.00
2023-02-23T14:51:35.228Z,1492.00
2023-02-23T14:52:35.224Z,1495.00
2023-02-23T14:53:35.270Z,1493.00
2023-02-23T14:54:35.348Z,1495.00
2023-02-23T14:55:35.462Z,1491.00
2023-02-23T14:56:43.684Z,1485.00
2023-02-23T14:57:36.425Z,1484.00
2023-02-23T14:58:35.430Z,1482.00
2023-02-23T14:59:35.504Z,1481.00
2023-02-23T15:00:35.426Z,1479.00
2023-02-23T15:01:35.487Z,1478.00
2023-02-23T15:02:40.788Z,1475.00
2023-02-23T15:03:36.475Z,1476.00
2023-02-23T15:04:35.518Z,1471.00
2023-02-23T15:05:35.495Z,1467.00
2023-02-23T15:06:35.512Z,1465.00
2023-02-23T15:07:35.523Z,1465.00
2023-02-23T15:08:35.623Z,1465.00
2023-02-23T15:09:35.536Z,1463.00
2023-02-23T15:10:35.584Z,1457.00
2023-02-23T15:11:35.566Z,1452.00
2023-02-23T15:12:35.589Z,1454.00
2023-02-23T15:13:38.113Z,1454.00
2023-02-23T15:14:35.731Z,1451.00
2023-02-23T15:15:35.770Z,1451.00
2023-02-23T15:16:35.802Z,1453.00
2023-02-23T15:17:35.825Z,1450.00
2023-02-23T15:18:35.852Z,1446.00
2023-02-23T15:19:35.894Z,1440.00
2023-02-23T15:20:35.928Z,1441.00
2023-02-23T15:21:36.006Z,1442.00
2023-02-23T15:22:35.986Z,1443.00
2023-02-23T15:23:36.078Z,1435.00
2023-02-23T15:24:36.126Z,1434.00
2023-02-23T15:25:36.266Z,1436.00
2023-02-23T15:26:36.241Z,1434.00
2023-02-23T15:27:36.325Z,1433.00
2023-02-23T15:28:36.384Z,1425.00
2023-02-23T15:29:36.465Z,1424.00
2023-02-23T15:30:36.513Z,1423.00
2023-02-23T15:31:36.684Z,1422.00
2023-02-23T15:32:36.792Z,1420.00
2023-02-23T15:33:36.729Z,1421.00
2023-02-23T15:34:36.798Z,1417.00
2023-02-23T15:35:36.895Z,1415.00
2023-02-23T15:36:36.909Z,1414.00
2023-02-23T15:37:36.952Z,1411.00
2023-02-23T15:38:44.470Z,1411.00
2023-02-23T15:39:38.013Z,1407.00
2023-02-23T15:40:37.016Z,1404.00
2023-02-23T15:41:37.049Z,1403.00
2023-02-23T15:42:37.041Z,1401.00
2023-02-23T15:43:37.063Z,1396.00
2023-02-23T15:44:44.085Z,1394.00
2023-02-23T15:45:38.114Z,1392.00
2023-02-23T15:46:37.095Z,1389.00
2023-02-23T15:47:37.130Z,1386.00
2023-02-23T15:48:37.130Z,1381.00
2023-02-23T15:49:37.680Z,1377.00
2023-02-23T15:50:37.676Z,1378.00
2023-02-23T15:51:37.245Z,1377.00
2023-02-23T15:52:37.185Z,1373.00
2023-02-23T15:53:37.218Z,1370.00
2023-02-23T15:54:37.218Z,1369.00
2023-02-23T15:55:37.238Z,1368.00
2023-02-23T15:56:37.241Z,1367.00
2023-02-23T15:57:37.249Z,1366.00
2023-02-23T15:58:41.836Z,1366.00
2023-02-23T15:59:38.268Z,1365.00
2023-02-23T16:00:37.363Z,1363.00
2023-02-23T16:01:37.284Z,1364.00
2023-02-23T16:02:37.285Z,1361.00
2023-02-23T16:03:37.519Z,1360.00
2023-02-23T16:04:37.332Z,1358.00
2023-02-23T16:05:41.853Z,1356.00
2023-02-23T16:06:38.501Z,1357.00
2023-02-23T16:07:37.331Z,1356.00
2023-02-23T16:08:37.356Z,1353.00
2023-02-23T16:09:37.391Z,1352.00
2023-02-23T16:10:37.365Z,1355.00
2023-02-23T16:11:37.400Z,1354.00
2023-02-23T16:12:37.396Z,1351.00
2023-02-23T16:13:37.417Z,1348.00
2023-02-23T16:14:37.432Z,1345.00
2023-02-23T16:15:37.454Z,1344.00
2023-02-23T16:16:37.550Z,1342.00
2023-02-23T16:17:37.479Z,1341.00
2023-02-23T16:18:37.526Z,1343.00
2023-02-23T16:19:37.514Z,1346.00
2023-02-23T16:20:37.530Z,1346.00
2023-02-23T16:21:37.553Z,1346.00
2023-02-23T16:22:37.557Z,1344.00
2023-02-23T16:23:37.585Z,1340.00
2023-02-23T16:24:37.616Z,1339.00
2023-02-23T16:25:37.658Z,1337.00
2023-02-23T16:26:37.671Z,1333.00
2023-02-23T16:27:37.717Z,1332.00
2023-02-23T16:28:37.722Z,1331.00
2023-02-23T16:29:37.795Z,1331.00
2023-02-23T16:30:37.773Z,1331.00
2023-02-23T16:31:38.644Z,1327.00
2023-02-23T16:32:37.992Z,1325.00
2023-02-23T16:33:37.838Z,1324.00
2023-02-23T16:34:37.859Z,1323.00
2023-02-23T16:35:37.876Z,1321.00
2023-02-23T16:36:37.909Z,1321.00
2023-02-23T16:37:37.913Z,1318.00
2023-02-23T16:38:37.937Z,1317.00
2023-02-23T16:39:37.966Z,1313.00
2023-02-23T16:40:37.984Z,1312.00
2023-02-23T16:41:38.083Z,1309.00
2023-02-23T16:42:38.022Z,1310.00
2023-02-23T16:43:38.041Z,1312.00
2023-02-23T16:44:43.754Z,1312.00
2023-02-23T16:45:39.667Z,1313.00
2023-02-23T16:46:38.099Z,1309.00
2023-02-23T16:47:38.142Z,1307.00
2023-02-23T16:48:38.142Z,1303.00
2023-02-23T16:49:38.238Z,1301.00
2023-02-23T16:50:38.177Z,1300.00
2023-02-23T16:51:38.213Z,1300.00
2023-02-23T16:52:38.218Z,1297.00
2023-02-23T16:53:38.228Z,1297.00
2023-02-23T16:54:38.338Z,1296.00
2023-02-23T16:55:38.265Z,1297.00
2023-02-23T16:56:38.288Z,1296.00
2023-02-23T16:57:38.303Z,1297.00
2023-02-23T16:58:38.320Z,1297.00
2023-02-23T16:59:38.323Z,1296.00
2023-02-23T17:00:38.338Z,1300.00
2023-02-23T17:01:38.348Z,1299.00
2023-02-23T17:02:38.405Z,1298.00
2023-02-23T17:03:47.373Z,1297.00
2023-02-23T17:04:39.479Z,1295.00
2023-02-23T17:05:38.418Z,1292.00
2023-02-23T17:06:38.443Z,1294.00
2023-02-23T17:07:38.468Z,1289.00
2023-02-23T17:08:43.393Z,1291.00
2023-02-23T17:09:39.490Z,1287.00
2023-02-23T17:10:38.503Z,1284.00
2023-02-23T17:11:38.512Z,1283.00
2023-02-23T17:12:39.175Z,1282.00
2023-02-23T17:13:38.550Z,1280.00
2023-02-23T17:14:39.222Z,1277.00
2023-02-23T17:15:38.577Z,1281.00
2023-02-23T17:16:38.638Z,1280.00
2023-02-23T17:17:38.626Z,1275.00
2023-02-23T17:18:42.625Z,1274.00
2023-02-23T17:19:38.648Z,1271.00
2023-02-23T17:20:38.683Z,1274.00
2023-02-23T17:21:38.676Z,1272.00
2023-02-23T17:22:38.688Z,1271.00
2023-02-23T17:23:38.707Z,1270.00
2023-02-23T17:24:38.727Z,1267.00
2023-02-23T17:25:38.742Z,1266.00
2023-02-23T17:26:38.753Z,1267.00
2023-02-23T17:27:38.783Z,1264.00
2023-02-23T17:28:38.864Z,1262.00
2023-02-23T17:29:38.829Z,1261.00
2023-02-23T17:30:38.890Z,1259.00
2023-02-23T17:31:39.101Z,1259.00
2023-02-23T17:32:39.026Z,1259.00
2023-02-23T17:33:38.970Z,1257.00
2023-02-23T17:34:38.987Z,1253.00
2023-02-23T17:35:39.026Z,1249.00
2023-02-23T17:36:39.059Z,1248.00
2023-02-23T17:37:39.100Z,1245.00
2023-02-23T17:38:39.118Z,1245.00
2023-02-23T17:39:39.151Z,1246.00
2023-02-23T17:40:39.180Z,1250.00
2023-02-23T17:41:39.230Z,1252.00
2023-02-23T17:42:39.325Z,1249.00
2023-02-23T17:43:39.370Z,1247.00
2023-02-23T17:44:39.305Z,1245.00
2023-02-23T17:45:39.335Z,1245.00
2023-02-23T17:46:39.379Z,1245.00
2023-02-23T17:47:39.393Z,1245.00
2023-02-23T17:48:39.416Z,1242.00
2023-02-23T17:49:39.444Z,1241.00
2023-02-23T17:50:39.478Z,1245.00
2023-02-23T17:51:39.506Z,1246.00
2023-02-23T17:52:39.533Z,1248.00
2023-02-23T17:53:39.568Z,1246.00
2023-02-23T17:54:39.600Z,1242.00
2023-02-23T17:55:39.642Z,1239.00
2023-02-23T17:56:39.673Z,1239.00
2023-02-23T17:57:39.695Z,1239.00
2023-02-23T17:58:40.694Z,1237.00
2023-02-23T17:59:39.764Z,1241.00
2023-02-23T18:00:39.795Z,1239.00
2023-02-23T18:01:39.863Z,1235.00
2023-02-23T18:02:39.858Z,1234.00
2023-02-23T18:03:39.945Z,1235.00
2023-02-23T18:04:39.951Z,1234.00
2023-02-23T18:05:39.957Z,1232.00
2023-02-23T18:06:39.994Z,1229.00
2023-02-23T18:07:40.066Z,1229.00
2023-02-23T18:08:40.091Z,1228.00
2023-02-23T18:09:40.161Z,1228.00
2023-02-23T18:10:40.166Z,1227.00
2023-02-23T18:11:40.211Z,1225.00
2023-02-23T18:12:40.234Z,1221.00
2023-02-23T18:13:40.696Z,1215.00
2023-02-23T18:14:40.312Z,1217.00
2023-02-23T18:15:40.380Z,1215.00
2023-02-23T18:16:40.426Z,1216.00
2023-02-23T18:17:40.475Z,1213.00
2023-02-23T18:18:40.510Z,1211.00
2023-02-23T18:19:40.552Z,1212.00
2023-02-23T18:20:40.590Z,1212.00
2023-02-23T18:21:40.638Z,1211.00
2023-02-23T18:22:40.673Z,1211.00
2023-02-23T18:23:40.729Z,1212.00
2023-02-23T18:24:40.762Z,1209.00
2023-02-23T18:25:40.811Z,1210.00
2023-02-23T18:26:40.843Z,1209.00
2023-02-23T18:27:40.889Z,1211.00
2023-02-23T18:28:40.929Z,1213.00
2023-02-23T18:29:40.964Z,1212.00
2023-02-23T18:30:41.014Z,1211.00
2023-02-23T18:31:41.273Z,1213.00
2023-02-23T18:32:41.237Z,1213.00
2023-02-23T18:33:41.131Z,1212.00
2023-02-23T18:34:41.166Z,1211.00
2023-02-23T18:35:41.199Z,1211.00
2023-02-23T18:36:41.240Z,1213.00
2023-02-23T18:37:41.301Z,1210.00
2023-02-23T18:38:41.320Z,1203.00
2023-02-23T18:39:41.346Z,1201.00
2023-02-23T18:40:41.444Z,1201.00
2023-02-23T18:41:41.405Z,1199.00
2023-02-23T18:42:41.447Z,1200.00
2023-02-23T18:43:41.475Z,1199.00
2023-02-23T18:44:41.514Z,1199.00
2023-02-23T18:45:41.544Z,1200.00
2023-02-23T18:46:41.700Z,1199.00
2023-02-23T18:47:42.215Z,1201.00
2023-02-23T18:48:41.649Z,1201.00
2023-02-23T18:49:41.683Z,1197.00
2023-02-23T18:50:41.732Z,1195.00
2023-02-23T18:51:43.138Z,1196.00
2023-02-23T18:52:41.802Z,1191.00
2023-02-23T19:38:43.747Z,1147.00
2023-02-23T19:39:43.773Z,1146.00
2023-02-23T19:41:43.865Z,1141.00
2023-02-23T19:42:43.916Z,1143.00
2023-02-23T19:44:44.083Z,1142.00
2023-02-23T19:45:44.145Z,1141.00
2023-02-23T19:46:44.131Z,1141.00
2023-02-23T19:47:44.218Z,1139.00
2023-02-23T19:48:44.899Z,1140.00
2023-02-23T19:49:44.284Z,1138.00
2023-02-23T19:50:44.329Z,1133.00
2023-02-23T19:51:44.396Z,1134.00
2023-02-23T19:52:44.431Z,1135.00
2023-02-23T19:53:44.511Z,1135.00
2023-02-23T19:54:44.535Z,1133.00
2023-02-23T19:55:44.580Z,1130.00
2023-02-23T19:56:44.628Z,1128.00
2023-02-23T19:57:44.758Z,1128.00
2023-02-23T19:58:44.751Z,1130.00
2023-02-23T20:09:46.237Z,1121.00
2023-02-23T20:21:46.004Z,1106.00
2023-02-23T20:22:46.015Z,1103.00
2023-02-23T20:23:46.067Z,1102.00
2023-02-23T20:24:46.129Z,1100.00
2023-02-23T20:25:46.185Z,1098.00
2023-02-23T20:26:46.250Z,1099.00
2023-02-23T20:27:46.305Z,1097.00
2023-02-23T20:28:46.344Z,1093.00
2023-02-23T20:29:46.396Z,1092.00
2023-02-23T20:30:46.494Z,1090.00
2023-02-23T20:34:46.685Z,1091.00
2023-02-23T20:35:46.736Z,1091.00
2023-02-23T20:36:46.816Z,1088.00
2023-02-23T20:37:46.852Z,1089.00
2023-02-23T20:38:46.910Z,1091.00
2023-02-23T20:39:46.962Z,1090.00
2023-02-23T20:40:47.008Z,1092.00
2023-02-23T20:41:47.065Z,1091.00
2023-02-23T20:42:47.141Z,1091.00
2023-02-23T20:43:47.258Z,1090.00
2023-02-23T20:44:47.232Z,1086.00
2023-02-23T20:45:47.327Z,1084.00
2023-02-23T20:46:47.364Z,1084.00
2023-02-23T20:47:47.426Z,1085.00
2023-02-23T20:48:47.473Z,1083.00
2023-02-23T20:49:47.608Z,1081.00
2023-02-23T20:50:47.598Z,1082.00
2023-02-23T20:51:47.655Z,1080.00
2023-02-23T20:52:47.722Z,1081.00
2023-02-23T20:53:47.783Z,1080.00
2023-02-23T20:55:47.894Z,1079.00
2023-02-23T23:03:55.939Z,980.00
2023-02-23T23:04:56.003Z,978.00
2023-02-23T23:05:56.069Z,974.00
2023-02-23T23:06:56.144Z,974.00
2023-02-23T23:07:56.288Z,974.00
2023-02-23T23:08:56.276Z,973.00
2023-02-23T23:09:56.351Z,972.00
2023-02-23T23:10:56.421Z,973.00
2023-02-23T23:11:56.487Z,973.00
2023-02-23T23:12:56.545Z,972.00
2023-02-23T23:13:56.602Z,976.00
2023-02-23T23:14:56.663Z,980.00
2023-02-23T23:16:07.526Z,980.00
2023-02-23T23:16:57.785Z,978.00
2023-02-23T23:17:56.857Z,977.00
2023-02-23T23:18:56.807Z,978.00
2023-02-23T23:19:57.307Z,975.00
2023-02-23T23:20:56.885Z,974.00
2023-02-23T23:21:56.940Z,974.00
2023-02-23T23:22:56.986Z,975.00
2023-02-23T23:23:57.014Z,972.00
2023-02-23T23:24:57.155Z,971.00
2023-02-23T23:25:57.803Z,969.00
2023-02-23T23:26:57.132Z,968.00
2023-02-23T23:27:57.172Z,966.00
2023-02-23T23:28:57.202Z,967.00
2023-02-23T23:29:57.237Z,967.00
2023-02-23T23:30:57.320Z,966.00
2023-02-23T23:31:58.492Z,965.00
2023-02-23T23:32:57.518Z,961.00
2023-02-23T23:33:57.387Z,960.00
2023-02-23T23:34:57.506Z,957.00
2023-02-23T23:35:58.337Z,955.00
2023-02-23T23:36:57.530Z,954.00
2023-02-23T23:37:57.609Z,955.00
2023-02-23T23:38:57.680Z,960.00
2023-02-23T23:39:57.750Z,961.00
2023-02-23T23:40:57.811Z,960.00
2023-02-23T23:41:57.893Z,957.00
2023-02-23T23:42:57.948Z,958.00
2023-02-23T23:43:58.010Z,958.00
2023-02-23T23:44:58.079Z,959.00
2023-02-23T23:45:58.191Z,957.00
2023-02-23T23:46:58.240Z,956.00
2023-02-23T23:47:58.307Z,957.00
2023-02-23T23:48:58.380Z,957.00
2023-02-23T23:49:58.449Z,955.00
2023-02-23T23:50:58.503Z,957.00
2023-02-23T23:51:58.632Z,957.00
2023-02-23T23:52:58.638Z,959.00
2023-02-23T23:53:58.706Z,959.00
2023-02-23T23:54:58.763Z,960.00